createdAt,value
2018-09-27T00:01:08.436Z,74.73
2018-09-27T00:03:36.898Z,74.70
2018-09-27T00:06:06.750Z,75.88
2018-09-27T00:08:35.086Z,75.08
2018-09-27T00:11:03.434Z,74.94
2018-09-27T00:13:31.684Z,76.23
2018-09-27T00:15:59.942Z,75.16
2018-09-27T00:18:28.870Z,75.16
2018-09-27T00:20:59.435Z,75.43
2018-09-27T00:23:28.932Z,75.30
2018-09-27T00:25:57.293Z,75.81
2018-09-27T00:28:25.844Z,76.21
2018-09-27T00:30:54.399Z,76.19
2018-09-27T00:33:22.931Z,76.20
2018-09-27T00:35:51.186Z,76.41
2018-09-27T00:38:19.652Z,76.88
2018-09-27T00:40:48.266Z,76.97
2018-09-27T00:43:16.575Z,77.47
2018-09-27T00:45:45.655Z,77.49
2018-09-27T00:48:16.294Z,77.96
2018-09-27T00:50:45.843Z,77.53
2018-09-27T00:53:14.879Z,77.88
2018-09-27T00:55:43.378Z,77.35
2018-09-27T00:58:12.877Z,78.01
2018-09-27T01:00:42.217Z,77.73
2018-09-27T01:03:10.547Z,78.63
2018-09-27T01:05:38.824Z,78.37
2018-09-27T01:08:07.137Z,78.98
2018-09-27T01:10:36.886Z,79.83
2018-09-27T01:13:05.260Z,79.60
2018-09-27T01:15:33.841Z,80.17
2018-09-27T01:18:02.736Z,80.51
2018-09-27T01:20:31.080Z,81.49
2018-09-27T01:22:59.459Z,81.07
2018-09-27T01:25:27.765Z,81.12
2018-09-27T01:27:56.647Z,81.50
2018-09-27T01:30:25.009Z,80.98
2018-09-27T01:32:53.555Z,81.28
2018-09-27T01:35:22.139Z,81.08
2018-09-27T01:37:50.416Z,80.88
2018-09-27T01:40:18.753Z,81.07
2018-09-27T01:42:47.026Z,81.18
2018-09-27T01:45:15.345Z,81.48
2018-09-27T01:47:43.629Z,82.73
2018-09-27T01:50:11.976Z,82.22
2018-09-27T01:52:40.250Z,83.11
2018-09-27T01:55:08.537Z,82.30
2018-09-27T01:57:36.683Z,82.77
2018-09-27T02:00:05.278Z,83.88
2018-09-27T02:02:33.550Z,83.35
2018-09-27T02:05:02.438Z,82.78
2018-09-27T02:07:31.311Z,82.15
2018-09-27T02:09:59.836Z,82.81
2018-09-27T02:12:28.079Z,83.28
2018-09-27T02:14:56.904Z,82.77
2018-09-27T02:17:26.083Z,83.45
2018-09-27T02:19:54.428Z,83.66
2018-09-27T02:22:23.075Z,82.80
2018-09-27T02:24:52.197Z,83.14
2018-09-27T02:27:20.539Z,83.33
2018-09-27T02:29:48.954Z,82.64
2018-09-27T02:32:17.763Z,82.77
2018-09-27T02:34:46.778Z,82.82
2018-09-27T02:37:16.200Z,82.99
2018-09-27T02:39:44.466Z,83.38
2018-09-27T02:42:12.941Z,83.23
2018-09-27T02:44:41.517Z,83.34
2018-09-27T02:47:10.104Z,82.66
2018-09-27T02:49:38.363Z,81.93
2018-09-27T02:52:07.527Z,82.46
2018-09-27T02:54:36.524Z,82.20
2018-09-27T02:57:04.850Z,82.61
2018-09-27T02:59:33.149Z,82.02
2018-09-27T03:02:02.771Z,82.91
2018-09-27T03:04:31.373Z,83.46
2018-09-27T03:06:59.789Z,84.06
2018-09-27T03:09:28.348Z,84.58
2018-09-27T03:11:56.935Z,85.30
2018-09-27T03:14:26.060Z,85.47
2018-09-27T03:16:54.915Z,85.26
2018-09-27T03:19:23.866Z,85.16
2018-09-27T03:21:52.202Z,84.63
2018-09-27T03:24:21.823Z,85.29
2018-09-27T03:26:51.175Z,85.44
2018-09-27T03:29:20.455Z,84.83
2018-09-27T03:31:49.656Z,84.81
2018-09-27T03:34:18.311Z,84.96
2018-09-27T03:36:46.684Z,84.58
2018-09-27T03:39:15.108Z,84.98
2018-09-27T03:41:43.601Z,84.98
2018-09-27T03:44:12.395Z,85.33
2018-09-27T03:46:40.747Z,83.97
2018-09-27T03:49:09.414Z,84.27
2018-09-27T03:51:38.035Z,84.63
2018-09-27T03:54:06.950Z,84.87
2018-09-27T03:56:35.702Z,85.09
2018-09-27T03:59:05.005Z,84.95
2018-09-27T04:01:33.247Z,84.93
2018-09-27T04:04:01.508Z,86.11
2018-09-27T04:06:30.457Z,85.53
2018-09-27T04:08:59.514Z,86.21
2018-09-27T04:11:27.859Z,85.69
2018-09-27T04:13:56.251Z,87.85
2018-09-27T04:16:25.129Z,85.09
2018-09-27T04:18:53.539Z,85.56
2018-09-27T04:21:23.145Z,84.87
2018-09-27T04:23:52.034Z,85.60
2018-09-27T04:26:20.405Z,85.62
2018-09-27T04:28:48.706Z,85.15
2018-09-27T04:31:17.333Z,85.00
2018-09-27T04:33:45.923Z,86.10
2018-09-27T04:36:14.641Z,85.62
2018-09-27T04:38:43.513Z,86.12
2018-09-27T04:41:11.861Z,86.34
2018-09-27T04:43:40.295Z,86.83
2018-09-27T04:46:09.643Z,86.95
2018-09-27T04:48:38.056Z,86.85
2018-09-27T04:51:06.777Z,85.47
2018-09-27T04:53:36.363Z,85.76
2018-09-27T04:56:04.746Z,85.32
2018-09-27T04:58:33.140Z,84.12
2018-09-27T05:01:01.661Z,82.85
2018-09-27T05:03:30.587Z,83.04
2018-09-27T05:05:59.111Z,83.55
2018-09-27T05:08:27.351Z,84.56
2018-09-27T05:10:55.898Z,84.88
2018-09-27T05:13:24.653Z,84.13
2018-09-27T05:15:52.930Z,84.98
2018-09-27T05:18:21.270Z,84.14
2018-09-27T05:20:49.675Z,84.73
2018-09-27T05:23:18.768Z,84.64
2018-09-27T05:25:47.067Z,84.60
2018-09-27T05:28:15.448Z,84.97
2018-09-27T05:30:43.846Z,84.51
2018-09-27T05:33:12.426Z,83.70
2018-09-27T05:35:41.259Z,83.96
2018-09-27T05:38:09.933Z,83.59
2018-09-27T05:40:38.631Z,83.61
2018-09-27T05:43:07.581Z,83.36
2018-09-27T05:45:36.301Z,81.99
2018-09-27T05:48:04.636Z,81.37
2018-09-27T05:50:33.093Z,80.58
2018-09-27T05:53:02.071Z,80.04
2018-09-27T05:55:31.084Z,81.39
2018-09-27T05:57:59.606Z,81.30
2018-09-27T06:00:28.021Z,81.46
2018-09-27T06:02:56.399Z,81.69
2018-09-27T06:05:25.144Z,81.14
2018-09-27T06:07:53.739Z,80.96
2018-09-27T06:10:24.027Z,79.89
2018-09-27T06:12:52.304Z,79.79
2018-09-27T06:15:20.580Z,79.04
2018-09-27T06:17:49.243Z,78.32
2018-09-27T06:20:18.888Z,76.99
2018-09-27T06:22:47.451Z,76.57
2018-09-27T06:25:15.833Z,76.87
2018-09-27T06:27:44.137Z,76.68
2018-09-27T06:30:12.549Z,76.19
2018-09-27T06:32:41.281Z,74.82
2018-09-27T06:35:10.947Z,74.02
2018-09-27T06:37:40.154Z,73.50
2018-09-27T06:40:08.612Z,74.03
2018-09-27T06:42:37.015Z,72.81
2018-09-27T06:45:06.752Z,72.72
2018-09-27T06:47:35.128Z,71.87
2018-09-27T06:50:03.743Z,71.40
2018-09-27T06:52:32.478Z,71.72
2018-09-27T06:55:00.920Z,71.65
2018-09-27T06:57:29.583Z,71.54
2018-09-27T06:59:58.089Z,71.68
2018-09-27T07:02:27.392Z,71.54
2018-09-27T07:04:55.706Z,70.18
2018-09-27T07:07:24.103Z,70.70
2018-09-27T07:09:52.368Z,70.16
2018-09-27T07:12:21.489Z,70.04
2018-09-27T07:14:49.631Z,69.29
2018-09-27T07:17:18.261Z,68.40
2018-09-27T07:19:46.642Z,68.61
2018-09-27T07:22:15.389Z,68.04
2018-09-27T07:24:43.870Z,67.97
2018-09-27T07:27:12.149Z,66.25
2018-09-27T07:29:40.597Z,66.28
2018-09-27T07:32:08.919Z,66.47
2018-09-27T07:34:37.478Z,66.04
2018-09-27T07:37:06.593Z,65.45
2018-09-27T07:39:34.942Z,64.44
2018-09-27T07:42:04.042Z,64.65
2018-09-27T07:44:32.677Z,64.65
2018-09-27T07:47:07.736Z,64.72
2018-09-27T07:49:36.104Z,64.35
2018-09-27T07:52:04.785Z,63.63
2018-09-27T07:54:33.181Z,63.30
2018-09-27T07:57:01.907Z,62.57
2018-09-27T07:59:30.574Z,63.36
2018-09-27T08:01:58.868Z,63.29
2018-09-27T08:04:29.455Z,63.06
2018-09-27T08:06:58.691Z,62.86
2018-09-27T08:09:27.547Z,62.45
2018-09-27T08:11:56.240Z,61.57
2018-09-27T08:14:24.855Z,61.46
2018-09-27T08:16:53.212Z,61.41
2018-09-27T08:19:22.121Z,61.03
2018-09-27T08:21:53.259Z,60.37
2018-09-27T08:24:22.526Z,60.84
2018-09-27T08:26:52.129Z,60.68
2018-09-27T08:29:20.526Z,60.21
2018-09-27T08:31:48.804Z,60.29
2018-09-27T08:34:18.101Z,59.53
2018-09-27T08:36:46.744Z,58.92
2018-09-27T08:39:14.988Z,58.83
2018-09-27T08:41:43.434Z,58.05
2018-09-27T08:44:12.393Z,58.38
2018-09-27T08:46:41.954Z,57.32
2018-09-27T08:49:12.049Z,58.21
2018-09-27T08:51:40.502Z,58.35
2018-09-27T08:54:10.409Z,57.79
2018-09-27T08:56:39.457Z,57.30
2018-09-27T08:59:08.927Z,57.56
2018-09-27T09:01:38.112Z,57.58
2018-09-27T09:04:07.064Z,57.32
2018-09-27T09:06:35.527Z,56.20
2018-09-27T09:09:10.456Z,57.31
2018-09-27T09:11:38.750Z,55.80
2018-09-27T09:14:07.588Z,55.81
2018-09-27T09:16:39.058Z,55.86
2018-09-27T09:19:07.604Z,55.47
2018-09-27T09:21:36.059Z,55.30
2018-09-27T09:24:06.369Z,54.80
2018-09-27T09:26:37.381Z,54.94
2018-09-27T09:29:06.170Z,53.51
2018-09-27T09:31:34.445Z,53.77
2018-09-27T09:34:04.428Z,53.37
2018-09-27T09:36:32.976Z,52.91
2018-09-27T09:39:01.395Z,52.41
2018-09-27T09:41:29.792Z,51.38
2018-09-27T09:43:58.720Z,50.56
2018-09-27T09:46:27.429Z,49.89
2018-09-27T09:48:56.805Z,48.78
2018-09-27T09:51:25.250Z,49.20
2018-09-27T09:53:56.474Z,49.39
2018-09-27T09:56:26.273Z,48.49
2018-09-27T09:58:55.089Z,48.51
2018-09-27T10:01:24.204Z,48.40
2018-09-27T10:03:53.719Z,48.52
2018-09-27T10:06:22.958Z,48.20
2018-09-27T10:08:51.511Z,47.16
2018-09-27T10:11:21.035Z,47.35
2018-09-27T10:13:49.900Z,47.20
2018-09-27T10:16:18.580Z,46.27
2018-09-27T10:18:48.685Z,45.18
2018-09-27T10:21:19.088Z,45.55
2018-09-27T10:23:50.054Z,45.71
2018-09-27T10:26:19.492Z,44.27
2018-09-27T10:28:48.133Z,44.49
2018-09-27T10:31:16.898Z,43.79
2018-09-27T10:33:45.564Z,43.57
2018-09-27T10:36:14.831Z,42.45
2018-09-27T10:38:46.187Z,41.95
2018-09-27T10:41:15.016Z,41.40
2018-09-27T10:43:43.636Z,40.56
2018-09-27T10:46:12.274Z,40.24
2018-09-27T10:48:40.945Z,40.65
2018-09-27T10:51:09.952Z,40.00
2018-09-27T10:53:40.211Z,39.57
2018-09-27T10:56:09.164Z,39.96
2018-09-27T10:58:37.995Z,39.98
2018-09-27T11:01:06.977Z,40.17
2018-09-27T11:03:35.884Z,39.20
2018-09-27T11:06:04.182Z,38.66
2018-09-27T11:08:33.268Z,39.29
2018-09-27T11:11:02.323Z,38.10
2018-09-27T11:13:31.045Z,37.61
2018-09-27T11:15:59.698Z,36.97
2018-09-27T11:18:28.472Z,36.85
2018-09-27T11:20:56.843Z,37.22
2018-09-27T11:23:25.556Z,36.49
2018-09-27T11:25:54.218Z,35.79
2018-09-27T11:28:22.566Z,35.49
2018-09-27T11:30:56.678Z,35.08
2018-09-27T11:33:26.398Z,34.84
2018-09-27T11:35:54.911Z,34.83
2018-09-27T11:38:23.594Z,34.92
2018-09-27T11:40:52.379Z,35.21
2018-09-27T11:43:21.064Z,33.99
2018-09-27T11:45:49.862Z,34.41
2018-09-27T11:48:19.161Z,34.76
2018-09-27T11:50:49.589Z,34.56
2018-09-27T11:53:20.331Z,33.60
2018-09-27T11:55:49.950Z,34.25
2018-09-27T11:58:20.826Z,33.89
2018-09-27T12:00:55.150Z,33.78
2018-09-27T12:03:28.623Z,33.53
2018-09-27T12:05:58.303Z,33.28
2018-09-27T12:08:30.011Z,32.41
2018-09-27T12:11:01.171Z,32.75
2018-09-27T12:13:30.749Z,33.00
2018-09-27T12:16:01.310Z,32.73
2018-09-27T12:18:31.412Z,32.48
2018-09-27T12:20:59.969Z,32.89
2018-09-27T12:23:28.587Z,33.12
2018-09-27T12:25:57.152Z,33.16
2018-09-27T12:28:26.240Z,33.68
2018-09-27T12:30:54.734Z,32.68
2018-09-27T12:33:23.789Z,33.12
2018-09-27T12:35:54.257Z,32.43
2018-09-27T12:38:22.649Z,32.60
2018-09-27T12:40:50.873Z,31.27
2018-09-27T12:43:19.714Z,31.50
2018-09-27T12:45:48.378Z,30.93
2018-09-27T12:48:17.607Z,31.90
2018-09-27T12:50:51.886Z,31.76
2018-09-27T12:53:20.264Z,31.46
2018-09-27T12:55:49.552Z,31.48
2018-09-27T12:58:18.879Z,30.69
2018-09-27T13:00:49.083Z,30.09
2018-09-27T13:03:18.649Z,29.81
2018-09-27T13:05:47.784Z,29.08
2018-09-27T13:08:16.024Z,26.53
2018-09-27T13:10:44.568Z,24.82
2018-09-27T13:13:13.304Z,23.12
2018-09-27T13:15:42.352Z,21.73
2018-09-27T13:18:11.480Z,21.24
2018-09-27T13:20:39.964Z,20.90
2018-09-27T13:23:08.436Z,19.86
2018-09-27T13:25:36.991Z,19.78
2018-09-27T13:28:06.357Z,19.22
2018-09-27T13:30:34.803Z,18.14
2018-09-27T13:33:03.141Z,17.83
2018-09-27T13:35:31.663Z,17.66
2018-09-27T13:38:17.617Z,17.69
2018-09-27T13:40:52.676Z,16.78
2018-09-27T13:43:21.046Z,15.97
2018-09-27T13:45:49.628Z,16.91
2018-09-27T13:48:18.841Z,17.37
2018-09-27T13:50:47.950Z,14.92
2018-09-27T13:53:16.322Z,15.62
2018-09-27T13:55:45.897Z,15.31
2018-09-27T13:58:15.528Z,16.08
2018-09-27T14:00:44.511Z,15.51
2018-09-27T14:03:13.267Z,14.10
2018-09-27T14:05:42.122Z,14.86
2018-09-27T14:08:11.320Z,13.28
2018-09-27T14:10:39.992Z,13.36
2018-09-27T14:13:08.369Z,15.27
2018-09-27T14:15:36.604Z,14.49
2018-09-27T14:18:05.744Z,14.52
2018-09-27T14:20:34.233Z,12.21
2018-09-27T14:23:02.668Z,11.82
2018-09-27T14:25:32.738Z,12.78
2018-09-27T14:28:02.121Z,14.17
2018-09-27T14:30:31.986Z,12.78
2018-09-27T14:33:00.276Z,12.82
2018-09-27T14:35:30.478Z,13.51
2018-09-27T14:37:59.489Z,13.53
2018-09-27T14:40:30.763Z,12.89
2018-09-27T14:42:59.255Z,13.43
2018-09-27T14:45:27.710Z,13.14
2018-09-27T14:47:57.139Z,12.91
2018-09-27T14:50:27.168Z,12.90
2018-09-27T14:52:56.508Z,12.30
2018-09-27T14:55:25.449Z,12.63
2018-09-27T14:57:54.583Z,13.80
2018-09-27T15:00:23.672Z,13.45
2018-09-27T15:02:53.016Z,12.33
2018-09-27T15:05:22.407Z,12.13
2018-09-27T15:07:51.165Z,12.60
2018-09-27T15:10:21.161Z,12.03
2018-09-27T15:12:49.465Z,12.41
2018-09-27T15:15:17.964Z,11.94
2018-09-27T15:17:46.888Z,12.58
2018-09-27T15:20:16.648Z,12.86
2018-09-27T15:22:45.706Z,11.85
2018-09-27T15:25:14.414Z,12.37
2018-09-27T15:27:43.500Z,13.51
2018-09-27T15:30:12.154Z,12.87
2018-09-27T15:32:40.460Z,13.87
2018-09-27T15:35:09.339Z,14.45
2018-09-27T15:37:37.937Z,14.07
2018-09-27T15:40:06.337Z,12.66
2018-09-27T15:42:34.807Z,12.52
2018-09-27T15:45:03.647Z,12.33
2018-09-27T15:47:31.906Z,12.68
2018-09-27T15:50:00.433Z,13.94
2018-09-27T15:52:28.650Z,12.74
2018-09-27T15:54:56.850Z,13.35
2018-09-27T15:57:25.540Z,14.93
2018-09-27T15:59:54.314Z,13.97
2018-09-27T16:02:23.019Z,12.58
2018-09-27T16:04:51.698Z,13.22
2018-09-27T16:07:20.359Z,12.90
2018-09-27T16:09:48.640Z,14.53
2018-09-27T16:12:17.669Z,17.35
2018-09-27T16:14:46.361Z,21.41
2018-09-27T16:17:14.865Z,23.31
2018-09-27T16:19:43.614Z,25.52
2018-09-27T16:22:11.915Z,27.75
2018-09-27T16:24:40.779Z,29.09
2018-09-27T16:27:11.923Z,29.67
2018-09-27T16:29:40.519Z,30.47
2018-09-27T16:32:09.521Z,31.25
2018-09-27T16:34:37.832Z,31.35
2018-09-27T16:37:07.032Z,31.60
2018-09-27T16:39:35.328Z,33.10
2018-09-27T16:42:03.610Z,34.10
2018-09-27T16:44:32.095Z,35.99
2018-09-27T16:47:00.290Z,35.91
2018-09-27T16:49:28.747Z,35.76
2018-09-27T16:51:57.433Z,35.25
2018-09-27T16:54:26.124Z,35.67
2018-09-27T16:56:54.765Z,35.93
2018-09-27T16:59:23.226Z,37.09
2018-09-27T17:01:51.648Z,37.47
2018-09-27T17:04:20.090Z,37.65
2018-09-27T17:06:48.416Z,35.95
2018-09-27T17:09:17.161Z,35.54
2018-09-27T17:11:45.435Z,35.44
2018-09-27T17:14:13.821Z,35.62
2018-09-27T17:16:42.439Z,35.04
2018-09-27T17:19:11.311Z,34.43
2018-09-27T17:21:39.608Z,34.23
2018-09-27T17:24:08.097Z,34.13
2018-09-27T17:26:37.337Z,35.00
2018-09-27T17:29:05.784Z,33.95
2018-09-27T17:31:34.383Z,35.95
2018-09-27T17:34:02.642Z,39.12
2018-09-27T17:36:32.284Z,39.70
2018-09-27T17:39:00.694Z,39.51
2018-09-27T17:41:29.298Z,40.32
2018-09-27T17:43:58.102Z,40.51
2018-09-27T17:46:26.513Z,40.75
2018-09-27T17:48:55.010Z,41.34
2018-09-27T17:51:24.965Z,41.63
2018-09-27T17:53:53.413Z,42.26
2018-09-27T17:56:23.056Z,42.58
2018-09-27T17:58:51.541Z,42.60
2018-09-27T18:01:20.072Z,43.52
2018-09-27T18:03:48.655Z,43.57
2018-09-27T18:06:17.059Z,42.14
2018-09-27T18:08:45.353Z,43.02
2018-09-27T18:11:13.664Z,43.36
2018-09-27T18:13:42.020Z,43.59
2018-09-27T18:16:10.596Z,43.97
2018-09-27T18:18:39.208Z,44.20
2018-09-27T18:21:07.885Z,44.67
2018-09-27T18:23:36.441Z,45.65
2018-09-27T18:26:05.841Z,46.14
2018-09-27T18:28:34.247Z,47.14
2018-09-27T18:31:02.555Z,46.96
2018-09-27T18:33:30.868Z,47.65
2018-09-27T18:35:59.464Z,47.52
2018-09-27T18:38:28.027Z,47.65
2018-09-27T18:40:56.417Z,48.46
2018-09-27T18:43:25.124Z,48.32
2018-09-27T18:45:53.483Z,49.57
2018-09-27T18:48:22.103Z,48.92
2018-09-27T18:50:50.668Z,49.91
2018-09-27T18:53:18.932Z,49.87
2018-09-27T18:55:47.451Z,49.90
2018-09-27T18:58:15.792Z,49.89
2018-09-27T19:00:44.119Z,50.64
2018-09-27T19:03:13.315Z,50.05
2018-09-27T19:05:42.030Z,50.74
2018-09-27T19:08:10.506Z,51.27
2018-09-27T19:10:38.855Z,51.12
2018-09-27T19:13:07.338Z,51.55
2018-09-27T19:15:35.705Z,52.60
2018-09-27T19:18:04.910Z,51.76
2018-09-27T19:20:33.413Z,52.17
2018-09-27T19:23:01.734Z,51.55
2018-09-27T19:25:30.046Z,51.93
2018-09-27T19:27:58.595Z,51.28
2018-09-27T19:30:27.745Z,53.71
2018-09-27T19:32:56.399Z,54.62
2018-09-27T19:35:24.810Z,55.20
2018-09-27T19:37:53.501Z,56.56
2018-09-27T19:40:21.911Z,56.25
2018-09-27T19:42:50.975Z,55.99
2018-09-27T19:45:19.591Z,56.59
2018-09-27T19:47:48.198Z,55.44
2018-09-27T19:50:16.728Z,55.59
2018-09-27T19:52:45.637Z,55.04
2018-09-27T19:55:14.722Z,55.56
2018-09-27T19:57:43.104Z,56.61
2018-09-27T20:00:11.424Z,56.20
2018-09-27T20:02:41.325Z,56.71
2018-09-27T20:05:09.489Z,56.85
2018-09-27T20:07:38.251Z,57.97
2018-09-27T20:10:07.847Z,56.86
2018-09-27T20:12:36.142Z,56.79
2018-09-27T20:15:05.220Z,56.83
2018-09-27T20:17:34.042Z,56.99
2018-09-27T20:20:03.103Z,57.99
2018-09-27T20:22:31.783Z,57.89
2018-09-27T20:25:00.318Z,56.90
2018-09-27T20:27:29.190Z,57.14
2018-09-27T20:29:58.572Z,57.40
2018-09-27T20:32:28.064Z,57.59
2018-09-27T20:34:58.056Z,58.14
2018-09-27T20:37:26.814Z,58.55
2018-09-27T20:39:56.153Z,58.79
2018-09-27T20:42:24.441Z,59.01
2018-09-27T20:44:52.745Z,59.81
2018-09-27T20:47:21.128Z,61.23
2018-09-27T20:49:49.832Z,60.73
2018-09-27T20:52:18.521Z,60.45
2018-09-27T20:54:47.300Z,60.75
2018-09-27T20:57:15.581Z,62.17
2018-09-27T20:59:48.290Z,61.58
2018-09-27T21:02:16.489Z,61.77
2018-09-27T21:04:45.826Z,62.66
2018-09-27T21:07:14.172Z,63.01
2018-09-27T21:09:42.482Z,62.85
2018-09-27T21:12:10.788Z,62.81
2018-09-27T21:14:39.070Z,63.32
2018-09-27T21:17:07.545Z,62.96
2018-09-27T21:19:36.647Z,64.26
2018-09-27T21:22:04.984Z,64.29
2018-09-27T21:24:33.350Z,63.53
2018-09-27T21:27:01.586Z,63.92
2018-09-27T21:29:29.924Z,64.00
2018-09-27T21:31:58.204Z,64.53
2018-09-27T21:34:26.503Z,65.00
2018-09-27T21:36:55.141Z,65.58
2018-09-27T21:39:23.740Z,64.86
2018-09-27T21:41:52.726Z,65.03
2018-09-27T21:44:22.269Z,64.94
2018-09-27T21:46:50.784Z,66.06
2018-09-27T21:49:19.931Z,66.18
2018-09-27T21:51:48.720Z,66.97
2018-09-27T21:54:17.336Z,66.01
2018-09-27T21:56:46.049Z,67.61
2018-09-27T21:59:14.856Z,67.23
2018-09-27T22:01:43.436Z,67.60
2018-09-27T22:04:13.179Z,67.75
2018-09-27T22:06:41.613Z,68.57
2018-09-27T22:09:10.510Z,67.44
2018-09-27T22:11:40.055Z,67.33
2018-09-27T22:14:08.663Z,68.52
2018-09-27T22:16:36.975Z,67.57
2018-09-27T22:19:05.323Z,67.07
2018-09-27T22:21:33.677Z,68.07
2018-09-27T22:24:01.968Z,69.34
2018-09-27T22:26:30.202Z,68.80
2018-09-27T22:28:59.047Z,69.48
2018-09-27T22:31:27.360Z,69.75
2018-09-27T22:33:56.028Z,68.22
2018-09-27T22:36:24.866Z,68.57
2018-09-27T22:38:53.629Z,68.65
2018-09-27T22:41:22.257Z,69.66
2018-09-27T22:43:51.589Z,69.51
2018-09-27T22:46:20.508Z,69.50
2018-09-27T22:48:49.383Z,70.23
2018-09-27T22:51:17.678Z,70.40
2018-09-27T22:53:45.938Z,70.36
2018-09-27T22:56:14.289Z,69.83
2018-09-27T22:58:42.708Z,69.68
2018-09-27T23:01:11.578Z,69.50
2018-09-27T23:03:39.998Z,70.60
2018-09-27T23:06:08.320Z,70.68
2018-09-27T23:08:36.547Z,71.44
2018-09-27T23:11:04.876Z,70.93
2018-09-27T23:13:33.513Z,70.95
2018-09-27T23:16:02.053Z,70.77
2018-09-27T23:18:30.320Z,71.50
2018-09-27T23:20:59.387Z,72.41
2018-09-27T23:23:28.303Z,71.15
2018-09-27T23:25:56.918Z,71.32
2018-09-27T23:28:25.205Z,72.08
2018-09-27T23:30:53.485Z,71.85
2018-09-27T23:33:21.892Z,72.83
2018-09-27T23:35:50.223Z,72.13
2018-09-27T23:38:18.570Z,72.57
2018-09-27T23:40:46.917Z,72.84
2018-09-27T23:43:15.485Z,72.68
2018-09-27T23:45:44.081Z,72.92
2018-09-27T23:48:12.323Z,71.98
2018-09-27T23:50:40.661Z,72.94
2018-09-27T23:53:09.070Z,72.29
2018-09-27T23:55:37.341Z,72.71
2018-09-27T23:58:06.568Z,72.86
